Las Vegas, NV

11:54 AM PDT on May 29, 2015 (GMT -0700)
APRSWXNET | | Change Station
CLOSE
Current Station
Personal Weather Station
Location: Henderson, NV
Elevation: 2402 ft
Nearby Weather Stations

Elev 2402 ft 35.99 °N, 115.12 °W | Updated 30 minutes ago

Clear
Clear
87 °F
Feels Like 84 °F
N
0
Wind Variable Wind from NNE
Gusts 5.0 mph

Today
High -- | Low -- °F
--% Chance of Precip.
Yesterday
High -- | Low -- °F
Precip. -- in
5:26 AM 7:49 PM
Waxing Gibbous, 85% visible
Pressure 29.94 in
Visibility 10.0 miles
Clouds Clear
Heat Index 84 °F
Dew Point 37 °F
Humidity 17%
Rainfall in
Snow Depth Not available.
UV 11 out of 12
Pollen 6.10 out of 12
Air Quality Not available.
Flu Activity Sporadic
METAR KHND 291756Z 00000KT 10SM CLR 31/01 A3002 RMK AO2 SLP136 T03060011 10311 20217 50003

More Conditions Fewer Conditions

Pressure 29.94 in
Visibility 10.0 miles
Clouds Clear
Heat Index 84 °F
Dew Point 37 °F
Humidity 17%
Rainfall in
Snow Depth Not available.
UV 11 out of 12
Pollen 6.10 out of 12
Air Quality Not available.
Flu Activity Sporadic
METAR KHND 291756Z 00000KT 10SM CLR 31/01 A3002 RMK AO2 SLP136 T03060011 10311 20217 50003

More Conditions Fewer Conditions

10-Day Weather Forecast

Almanac

Astronomy

May. 29, 2015 Rise Set
Actual Time
Civil Twilight
Nautical Twilight
Astronomical Twilight
Moon
Length of Visible Light
Length of Day
Tomorrow will be .
, % of the Moon is Illuminated

Today's Extremes

State Highs State Lows

Community

WunderPhotos

Upload Photos

1,825,322 photos uploaded!

WunderBlogs® & News

Nearby

Air Quality

  Air Quality AQ Index Pollutant
Not available.

Snow Depth

Station Depth Elevation

Earthquake Activity

City Distance Mag. Time & Date
Minimum magnitude displayed is 2.5.

Coastal Water Temperatures

Place Temperature

Stations

Nearby Weather Stations

Station Location Temp. Windchill Dew Point Humidity Wind Precip. Elev Updated Type